Time;durP1;ratioP1;P1;durP2;ratioP2;P2;SDS_P1;SDS_P2;PMS_P1;PMS_P2;Temp;Humidity;BMP_temperature;BMP_pressure;BME280_temperature;BME280_humidity;BME280_pressure;Samples;Min_cycle;Max_cycle;Signal;HPM_P1;HPM_P2
2021/12/17 00:05:12;;;;;;;123.97;27.00;;;8.10;99.90;;;;;;4894390;29;20621;-48
2021/12/17 00:07:39;;;;;;;105.88;26.55;;;8.10;99.90;;;;;;4892662;29;20078;-47
2021/12/17 00:10:10;;;;;;;154.68;29.83;;;8.10;99.90;;;;;;4910434;29;20176;-46
2021/12/17 00:12:36;;;;;;;76.60;24.30;;;8.10;99.90;;;;;;4905530;29;20075;-48
2021/12/17 00:15:02;;;;;;;115.03;29.50;;;8.10;99.90;;;;;;4910970;29;20044;-46
2021/12/17 00:17:34;;;;;;;86.50;27.77;;;8.00;99.90;;;;;;4895272;29;20687;-46
2021/12/17 00:50:14;;;;;;;92.13;25.88;;;8.00;99.90;;;;;;4945005;29;20063;-46
2021/12/17 00:52:40;;;;;;;95.57;25.10;;;8.00;99.90;;;;;;4934516;29;20051;-45
2021/12/17 00:55:08;;;;;;;101.68;25.75;;;8.00;99.90;;;;;;4944061;29;20063;-46
2021/12/17 00:57:40;;;;;;;104.60;25.70;;;8.00;99.90;;;;;;4927331;29;20490;-49
2021/12/17 01:00:13;;;;;;;80.20;25.50;;;8.00;99.90;;;;;;4947579;29;20059;-49
2021/12/17 01:02:39;;;;;;;86.78;25.55;;;8.00;99.90;;;;;;4945505;29;20055;-50
2021/12/17 01:05:26;;;;;;;72.88;24.60;;;8.00;99.90;;;;;;4944946;28;21143;-50
2021/12/17 01:07:54;;;;;;;77.60;25.50;;;8.00;99.90;;;;;;4926353;29;20833;-50
2021/12/17 01:10:25;;;;;;;86.75;26.40;;;8.00;99.90;;;;;;4944460;29;20051;-47
2021/12/17 01:12:51;;;;;;;78.45;24.80;;;8.00;99.90;;;;;;4943962;29;20066;-47
2021/12/17 01:15:19;;;;;;;80.72;26.20;;;8.00;99.90;;;;;;4944736;29;20051;-47
2021/12/17 01:17:49;;;;;;;89.10;25.25;;;8.00;99.90;;;;;;4943399;29;20035;-48
2021/12/17 01:25:38;;;;;;;97.38;25.90;;;8.00;99.90;;;;;;4944265;28;20490;-49
2021/12/17 01:36:25;;;;;;;72.18;24.13;;;7.90;99.90;;;;;;4863197;29;20068;-47
2021/12/17 01:44:19;;;;;;;84.07;25.80;;;7.90;99.90;;;;;;4868453;29;20512;-46
2021/12/17 01:46:48;;;;;;;80.10;24.75;;;7.90;99.90;;;;;;4854044;29;20417;-46
2021/12/17 01:55:47;;;;;;;85.15;25.60;;;8.00;99.90;;;;;;4864240;29;20064;-50
2021/12/17 02:00:43;;;;;;;73.30;23.10;;;7.90;99.90;;;;;;4864061;29;20049;-46
2021/12/17 02:03:10;;;;;;;68.15;23.08;;;7.90;99.90;;;;;;4865548;29;20514;-49
2021/12/17 02:05:38;;;;;;;69.13;21.58;;;7.90;99.90;;;;;;4865529;29;20057;-48
2021/12/17 02:08:04;;;;;;;69.55;22.63;;;7.90;99.90;;;;;;4864226;29;20057;-47
2021/12/17 02:32:14;;;;;;;45.85;19.48;;;7.90;99.90;;;;;;4863805;29;20076;-47
2021/12/17 02:37:15;;;;;;;67.15;21.13;;;7.90;99.90;;;;;;4849235;29;20065;-46
2021/12/17 02:47:33;;;;;;;47.42;19.13;;;7.90;99.90;;;;;;4902588;28;20086;-47
2021/12/17 02:49:59;;;;;;;58.55;20.67;;;7.90;99.90;;;;;;4946070;29;20161;-46
2021/12/17 02:52:30;;;;;;;70.65;21.42;;;7.90;99.90;;;;;;4944727;28;20494;-49
2021/12/17 02:54:57;;;;;;;70.45;22.42;;;7.90;99.90;;;;;;4946995;29;20122;-47
2021/12/17 02:57:24;;;;;;;60.80;20.25;;;7.90;99.90;;;;;;4946654;29;20422;-48
2021/12/17 03:02:29;;;;;;;56.55;18.65;;;7.90;99.90;;;;;;5200283;23;20067;-47
2021/12/17 03:04:57;;;;;;;51.08;18.27;;;7.90;99.90;;;;;;4946563;28;20197;-47
2021/12/17 03:07:23;;;;;;;60.13;19.80;;;7.90;99.90;;;;;;4912801;29;20535;-47
2021/12/17 03:10:06;;;;;;;63.45;19.85;;;7.90;99.90;;;;;;4928737;29;20054;-48
2021/12/17 03:12:49;;;;;;;53.78;18.98;;;7.80;99.90;;;;;;4909855;29;20047;-48
2021/12/17 03:16:06;;;;;;;67.53;19.00;;;7.90;99.90;;;;;;4945788;29;20038;-48
2021/12/17 03:26:10;;;;;;;49.35;18.08;;;7.90;99.90;;;;;;4945195;28;20133;-49
2021/12/17 03:28:38;;;;;;;47.25;17.33;;;7.90;99.90;;;;;;4942107;28;20065;-47
2021/12/17 03:31:05;;;;;;;54.70;18.15;;;7.90;99.90;;;;;;4927940;29;20055;-47
2021/12/17 03:33:31;;;;;;;54.40;18.63;;;7.90;99.90;;;;;;4946900;29;20063;-48
2021/12/17 03:35:58;;;;;;;47.60;17.17;;;7.90;99.90;;;;;;4946132;29;20059;-47
2021/12/17 03:38:24;;;;;;;67.55;20.80;;;7.90;99.90;;;;;;4913181;29;20093;-49
2021/12/17 03:40:58;;;;;;;61.80;20.00;;;7.80;99.90;;;;;;4928560;29;20058;-47
2021/12/17 03:43:30;;;;;;;52.65;19.63;;;7.90;99.90;;;;;;4946264;29;20051;-48
2021/12/17 03:45:56;;;;;;;55.65;19.85;;;7.80;99.90;;;;;;4946065;29;20047;-51
2021/12/17 03:48:22;;;;;;;46.15;18.77;;;7.90;99.90;;;;;;4945488;29;20413;-48
2021/12/17 03:50:47;;;;;;;56.45;19.88;;;7.80;99.90;;;;;;4930930;29;20095;-50
2021/12/17 03:53:13;;;;;;;47.90;19.58;;;7.90;99.90;;;;;;4947524;29;20102;-49
2021/12/17 03:55:39;;;;;;;55.78;20.83;;;7.90;99.90;;;;;;4946341;29;20055;-51
2021/12/17 03:58:05;;;;;;;51.25;20.08;;;7.90;99.90;;;;;;4911674;29;20402;-50
2021/12/17 04:00:31;;;;;;;80.30;22.45;;;7.90;99.90;;;;;;4927210;29;20402;-49
2021/12/17 04:02:57;;;;;;;54.70;20.75;;;7.90;99.90;;;;;;4945552;29;20047;-48
2021/12/17 04:05:24;;;;;;;62.72;21.08;;;7.90;99.90;;;;;;4945591;29;20055;-47
2021/12/17 04:07:49;;;;;;;76.65;22.70;;;7.90;99.90;;;;;;4926424;29;20110;-48
2021/12/17 04:10:18;;;;;;;69.85;21.35;;;7.90;99.90;;;;;;4927547;28;20047;-48
2021/12/17 04:13:12;;;;;;;68.47;20.77;;;7.90;99.90;;;;;;4924831;29;20082;-47
2021/12/17 04:15:38;;;;;;;63.28;21.58;;;7.90;99.90;;;;;;4938376;29;20059;-47
2021/12/17 04:18:09;;;;;;;62.47;20.20;;;7.90;99.90;;;;;;4943471;28;20052;-50
2021/12/17 04:20:36;;;;;;;59.38;20.67;;;7.90;99.90;;;;;;4944833;28;20149;-47
2021/12/17 04:23:02;;;;;;;69.38;21.77;;;7.90;99.90;;;;;;4944514;29;20059;-47
2021/12/17 04:25:29;;;;;;;79.15;22.23;;;7.90;99.90;;;;;;4944551;29;20073;-47
2021/12/17 04:27:58;;;;;;;63.95;20.38;;;7.90;99.90;;;;;;4944139;28;20130;-47
2021/12/17 04:30:25;;;;;;;91.38;20.65;;;7.80;99.90;;;;;;4924225;29;20074;-47
2021/12/17 04:32:51;;;;;;;82.43;21.30;;;7.80;99.90;;;;;;4941119;28;20059;-47
2021/12/17 04:35:17;;;;;;;69.57;19.92;;;7.90;99.90;;;;;;4932475;29;20141;-48
2021/12/17 04:37:42;;;;;;;53.78;18.30;;;7.90;99.90;;;;;;4943812;28;20138;-47
2021/12/17 04:40:09;;;;;;;60.78;18.48;;;7.80;99.90;;;;;;4943872;28;20395;-49
2021/12/17 04:43:14;;;;;;;51.88;17.10;;;7.80;99.90;;;;;;4943819;28;20043;-47
2021/12/17 04:45:27;;;;;;;51.42;16.60;;;7.80;99.90;;;;;;4922013;29;20574;-46
2021/12/17 04:58:51;;;;;;;55.72;15.23;;;7.80;99.90;;;;;;4940266;28;20059;-47
2021/12/17 05:01:17;;;;;;;50.42;16.70;;;7.80;99.90;;;;;;4925972;29;20066;-48
2021/12/17 05:03:43;;;;;;;47.30;16.25;;;7.80;99.90;;;;;;4946540;28;20051;-48
2021/12/17 05:06:09;;;;;;;49.78;15.82;;;7.80;99.90;;;;;;4946118;28;20049;-51
2021/12/17 05:08:35;;;;;;;56.80;18.60;;;7.80;99.90;;;;;;4946132;28;20051;-50
2021/12/17 05:19:44;;;;;;;50.85;17.00;;;7.80;99.90;;;;;;4846067;29;20089;-47
2021/12/17 05:22:11;;;;;;;59.35;15.85;;;7.80;99.90;;;;;;4839756;29;20132;-47
2021/12/17 05:24:37;;;;;;;59.03;17.75;;;7.70;99.90;;;;;;4846641;29;20065;-46
2021/12/17 05:27:04;;;;;;;81.15;17.92;;;7.70;99.90;;;;;;4849169;29;20057;-47
2021/12/17 05:29:30;;;;;;;52.13;16.23;;;7.70;99.90;;;;;;4848380;29;20148;-47
2021/12/17 05:31:56;;;;;;;52.05;17.08;;;7.60;99.90;;;;;;4840888;29;20061;-47
2021/12/17 05:34:23;;;;;;;61.50;18.10;;;7.60;99.90;;;;;;4828515;29;20060;-48
2021/12/17 05:36:49;;;;;;;44.45;16.05;;;7.60;99.90;;;;;;4838682;29;20571;-47
2021/12/17 05:39:14;;;;;;;54.47;18.52;;;7.60;99.90;;;;;;4840436;29;20057;-50
2021/12/17 05:41:40;;;;;;;50.60;17.50;;;7.70;99.90;;;;;;4814694;29;20508;-47
2021/12/17 05:44:06;;;;;;;91.18;20.48;;;7.70;99.90;;;;;;4819254;29;20152;-47
2021/12/17 05:46:49;;;;;;;72.78;19.52;;;7.70;99.90;;;;;;4830408;29;20060;-48
2021/12/17 05:49:16;;;;;;;63.15;18.75;;;7.70;99.90;;;;;;4846295;28;20585;-48
2021/12/17 05:51:42;;;;;;;95.18;20.10;;;7.60;99.90;;;;;;4943323;28;20161;-47
2021/12/17 05:54:08;;;;;;;60.35;19.60;;;7.70;99.90;;;;;;4942770;28;20138;-49
2021/12/17 05:56:35;;;;;;;50.30;18.75;;;7.70;99.90;;;;;;4926328;29;20090;-47
2021/12/17 05:59:00;;;;;;;72.35;19.35;;;7.70;99.90;;;;;;4942696;28;20066;-48
2021/12/17 06:01:26;;;;;;;72.50;20.15;;;7.60;99.90;;;;;;4943241;28;20432;-48
2021/12/17 06:03:52;;;;;;;75.50;20.85;;;7.70;99.90;;;;;;4943070;28;20134;-46
2021/12/17 06:06:29;;;;;;;74.95;20.05;;;7.70;99.90;;;;;;4944266;29;20047;-48
2021/12/17 06:08:55;;;;;;;68.88;20.23;;;7.70;99.90;;;;;;4910368;29;20086;-47
2021/12/17 06:11:21;;;;;;;100.78;21.45;;;7.70;99.90;;;;;;4943003;29;20055;-48
2021/12/17 06:13:46;;;;;;;80.63;20.13;;;7.70;99.90;;;;;;4941900;29;20915;-50
2021/12/17 06:16:12;;;;;;;162.00;25.27;;;7.70;99.90;;;;;;4944884;29;20466;-49
2021/12/17 06:18:38;;;;;;;140.55;23.27;;;7.60;99.90;;;;;;4906134;29;20075;-50
2021/12/17 06:21:03;;;;;;;96.70;22.02;;;7.60;99.90;;;;;;4918852;29;20060;-48
2021/12/17 06:23:29;;;;;;;138.70;23.50;;;7.60;99.90;;;;;;4946009;28;20090;-50
2021/12/17 06:25:55;;;;;;;73.88;18.92;;;7.60;99.90;;;;;;4928915;29;20133;-48
2021/12/17 06:28:21;;;;;;;79.93;22.10;;;7.60;99.90;;;;;;4946298;28;20082;-48
2021/12/17 06:30:47;;;;;;;138.65;25.25;;;7.60;99.90;;;;;;4928876;29;20062;-47
2021/12/17 06:33:15;;;;;;;149.95;25.35;;;7.60;99.90;;;;;;4912705;29;20043;-47
2021/12/17 06:35:41;;;;;;;130.23;23.70;;;7.60;99.90;;;;;;4949860;28;20046;-49
2021/12/17 06:38:07;;;;;;;91.43;22.45;;;7.60;99.90;;;;;;4928341;29;20415;-48
2021/12/17 06:40:33;;;;;;;169.52;25.80;;;7.60;99.90;;;;;;4946213;28;20122;-48
2021/12/17 06:42:59;;;;;;;122.75;24.60;;;7.60;99.90;;;;;;4946319;28;20043;-47
2021/12/17 06:45:41;;;;;;;94.20;21.98;;;7.60;99.90;;;;;;4931913;29;20058;-47
2021/12/17 06:48:09;;;;;;;108.80;22.55;;;7.60;99.90;;;;;;4928692;29;20055;-47
2021/12/17 07:18:23;;;;;;;45.50;16.10;;;7.50;99.90;;;;;;4929577;29;20067;-48
2021/12/17 07:23:23;;;;;;;66.93;17.05;;;7.50;99.90;;;;;;4947872;29;20139;-47
2021/12/17 07:29:08;;;;;;;44.83;14.70;;;7.60;99.90;;;;;;4947424;29;20135;-49
2021/12/17 07:34:09;;;;;;;39.05;14.55;;;7.60;99.90;;;;;;4945344;28;20058;-47
2021/12/17 07:36:42;;;;;;;61.80;15.93;;;7.60;99.90;;;;;;4946145;29;20901;-50
2021/12/17 07:39:08;;;;;;;48.67;15.18;;;7.60;99.90;;;;;;4926736;29;20062;-48
2021/12/17 07:41:34;;;;;;;39.88;13.70;;;7.60;99.90;;;;;;4945592;28;20054;-49
2021/12/17 07:44:01;;;;;;;41.88;13.52;;;7.60;99.90;;;;;;4944040;28;20054;-47
2021/12/17 07:46:28;;;;;;;44.35;15.80;;;7.60;99.90;;;;;;4946178;28;20058;-47
2021/12/17 07:48:54;;;;;;;47.55;14.55;;;7.60;99.90;;;;;;4943264;28;20138;-47
2021/12/17 07:51:23;;;;;;;41.17;13.95;;;7.60;99.90;;;;;;4927465;29;20250;-48
2021/12/17 07:53:49;;;;;;;38.88;14.95;;;7.60;99.90;;;;;;4927343;29;20134;-47
2021/12/17 07:56:18;;;;;;;44.85;15.60;;;7.60;99.90;;;;;;4928177;29;20513;-46
2021/12/17 07:58:44;;;;;;;41.30;14.50;;;7.70;99.90;;;;;;4943886;28;20046;-48
2021/12/17 08:01:11;;;;;;;38.75;13.65;;;7.60;99.90;;;;;;4939778;28;20039;-47
2021/12/17 08:03:39;;;;;;;50.53;16.85;;;7.60;99.90;;;;;;4927144;28;20134;-47
2021/12/17 08:06:06;;;;;;;55.63;15.48;;;7.70;99.90;;;;;;4911980;29;20059;-47
2021/12/17 08:08:32;;;;;;;35.60;13.50;;;7.70;99.90;;;;;;4941621;28;20501;-46
2021/12/17 08:10:58;;;;;;;47.63;15.40;;;7.70;99.90;;;;;;4943196;28;20051;-47
2021/12/17 08:13:28;;;;;;;52.65;15.80;;;7.70;99.90;;;;;;4926775;28;20055;-47
2021/12/17 08:25:10;;;;;;;43.92;15.73;;;7.70;99.90;;;;;;4927135;29;20556;-47
2021/12/17 08:29:42;;;;;;;42.70;16.80;;;7.80;99.90;;;;;;4925254;29;20062;-49
2021/12/17 08:32:08;;;;;;;49.50;17.55;;;7.80;99.90;;;;;;4925669;29;20070;-47
2021/12/17 08:34:34;;;;;;;44.35;15.77;;;7.80;99.90;;;;;;4927130;29;20510;-50
2021/12/17 08:37:01;;;;;;;45.72;15.52;;;7.80;99.90;;;;;;4944904;29;20327;-48
2021/12/17 08:39:30;;;;;;;45.25;15.40;;;7.80;99.90;;;;;;4925554;29;20060;-49
2021/12/17 08:41:56;;;;;;;37.45;14.20;;;7.80;99.90;;;;;;4945112;29;20078;-47
2021/12/17 08:44:23;;;;;;;35.35;13.90;;;7.80;99.90;;;;;;4928138;29;20097;-49
2021/12/17 08:46:49;;;;;;;35.08;14.00;;;7.80;99.90;;;;;;4927139;29;20504;-56
2021/12/17 08:49:15;;;;;;;37.35;13.85;;;7.80;99.90;;;;;;4938894;28;20074;-48
2021/12/17 08:51:43;;;;;;;30.70;13.40;;;7.80;99.90;;;;;;4944185;29;20413;-47
2021/12/17 08:54:09;;;;;;;33.72;14.05;;;7.80;99.90;;;;;;4943392;29;20226;-48
2021/12/17 08:56:42;;;;;;;36.78;14.77;;;7.80;99.90;;;;;;4944489;29;20051;-49
2021/12/17 08:59:09;;;;;;;32.55;14.13;;;7.80;99.90;;;;;;4943692;29;20055;-47
2021/12/17 09:01:37;;;;;;;41.15;15.50;;;7.90;99.90;;;;;;4923801;29;20130;-47
2021/12/17 09:04:03;;;;;;;35.80;16.27;;;7.90;99.90;;;;;;4924972;29;20125;-50
2021/12/17 09:06:29;;;;;;;31.63;14.43;;;7.90;99.90;;;;;;4943992;28;20501;-49
2021/12/17 09:08:56;;;;;;;31.92;15.32;;;7.90;99.90;;;;;;4944643;29;20533;-47
2021/12/17 09:11:27;;;;;;;40.78;16.98;;;8.00;99.90;;;;;;4943919;29;20501;-47
2021/12/17 09:13:56;;;;;;;26.88;13.70;;;7.90;99.90;;;;;;4944410;29;20070;-49
2021/12/17 09:16:21;;;;;;;38.10;17.52;;;8.00;99.90;;;;;;4925742;29;20130;-49
2021/12/17 09:18:48;;;;;;;30.95;14.07;;;8.00;99.90;;;;;;4919689;29;20051;-47
2021/12/17 09:21:15;;;;;;;30.17;15.05;;;8.00;99.90;;;;;;4922424;29;20409;-47
2021/12/17 09:23:41;;;;;;;34.80;16.60;;;8.10;99.90;;;;;;4933119;29;20062;-48
2021/12/17 09:26:10;;;;;;;30.95;13.93;;;8.10;99.90;;;;;;4942900;29;20336;-46
2021/12/17 09:28:36;;;;;;;32.63;15.63;;;8.10;99.90;;;;;;4937436;29;20055;-47
2021/12/17 09:31:02;;;;;;;30.00;14.15;;;8.10;99.90;;;;;;4934558;28;20059;-46
2021/12/17 09:33:27;;;;;;;28.92;13.73;;;8.10;99.90;;;;;;4944359;28;20114;-48
2021/12/17 09:36:00;;;;;;;28.00;13.02;;;8.10;99.90;;;;;;4930788;28;20058;-47
2021/12/17 09:38:26;;;;;;;29.50;12.75;;;8.20;99.90;;;;;;4908535;29;20162;-47
2021/12/17 09:40:55;;;;;;;25.50;12.70;;;8.10;99.90;;;;;;4943219;28;20051;-48
2021/12/17 09:43:21;;;;;;;24.65;12.55;;;8.10;99.90;;;;;;4924232;29;20060;-49
2021/12/17 09:45:46;;;;;;;24.33;12.45;;;8.10;99.90;;;;;;4923302;29;20506;-47
2021/12/17 09:48:14;;;;;;;32.25;13.43;;;8.20;99.90;;;;;;4945079;28;20170;-49
2021/12/17 09:50:40;;;;;;;32.50;14.60;;;8.20;99.90;;;;;;4910323;28;20584;-50
2021/12/17 09:53:06;;;;;;;24.67;12.23;;;8.20;99.90;;;;;;4944710;28;20047;-47
2021/12/17 09:55:32;;;;;;;27.02;13.35;;;8.20;99.90;;;;;;4944689;28;20059;-47
2021/12/17 09:57:58;;;;;;;26.63;12.68;;;8.20;99.90;;;;;;4946578;28;20050;-49
2021/12/17 10:00:26;;;;;;;29.95;13.30;;;8.20;99.90;;;;;;4947547;29;20051;-48
2021/12/17 10:02:52;;;;;;;26.85;13.00;;;8.30;99.90;;;;;;4925672;29;20056;-47
2021/12/17 10:05:25;;;;;;;24.67;12.27;;;8.20;99.90;;;;;;4927644;29;20051;-47
2021/12/17 10:08:01;;;;;;;26.33;12.70;;;8.30;99.90;;;;;;4925872;29;20521;-47
2021/12/17 10:10:36;;;;;;;24.35;13.35;;;8.20;99.90;;;;;;4924895;29;20055;-46
2021/12/17 10:13:25;;;;;;;28.55;13.45;;;8.20;99.90;;;;;;4922260;29;20165;-47
2021/12/17 10:15:56;;;;;;;28.63;13.18;;;8.30;99.90;;;;;;4876703;29;20634;-49
2021/12/17 10:18:39;;;;;;;31.75;13.45;;;8.30;99.90;;;;;;4883360;29;20080;-48
2021/12/17 10:21:17;;;;;;;25.05;12.65;;;8.30;99.90;;;;;;4885919;29;20057;-48
2021/12/17 10:23:44;;;;;;;25.05;12.77;;;8.40;99.90;;;;;;4886875;29;20139;-50
2021/12/17 10:26:15;;;;;;;24.48;12.63;;;8.30;99.90;;;;;;4888325;29;20057;-47
2021/12/17 10:29:04;;;;;;;21.02;11.95;;;8.40;99.90;;;;;;4887977;29;20663;-47
2021/12/17 10:31:35;;;;;;;25.23;13.15;;;8.40;99.90;;;;;;4887643;29;20049;-48
2021/12/17 10:34:04;;;;;;;24.25;12.13;;;8.40;99.90;;;;;;4888477;29;20060;-47
2021/12/17 10:36:35;;;;;;;20.75;11.88;;;8.50;99.90;;;;;;4888428;29;20569;-47
2021/12/17 10:39:05;;;;;;;19.67;11.98;;;8.40;99.90;;;;;;4885579;29;20095;-47
2021/12/17 10:41:32;;;;;;;21.83;11.93;;;8.50;99.90;;;;;;4873082;29;20131;-48
2021/12/17 10:44:07;;;;;;;24.33;12.95;;;8.50;99.90;;;;;;4886842;29;20593;-46
2021/12/17 10:46:45;;;;;;;27.77;12.98;;;8.60;99.90;;;;;;4887143;29;20061;-47
2021/12/17 10:54:11;;;;;;;27.55;13.75;;;8.70;99.90;;;;;;4928175;29;20597;-48
2021/12/17 10:56:47;;;;;;;23.88;13.20;;;8.70;99.90;;;;;;4922596;29;20406;-47
2021/12/17 10:59:23;;;;;;;28.90;13.52;;;8.70;99.90;;;;;;4926405;29;20062;-47
2021/12/17 11:01:58;;;;;;;25.27;14.38;;;8.80;99.90;;;;;;4929291;29;20060;-48
2021/12/17 11:04:35;;;;;;;23.90;13.55;;;8.90;99.90;;;;;;4940598;28;20093;-50
2021/12/17 11:07:10;;;;;;;25.67;13.75;;;8.90;99.90;;;;;;4948588;28;20047;-50
2021/12/17 11:09:50;;;;;;;26.25;13.82;;;8.90;99.90;;;;;;4944060;28;20138;-50
2021/12/17 11:12:38;;;;;;;21.40;12.10;;;8.90;99.90;;;;;;4925506;29;20095;-51
2021/12/17 11:15:11;;;;;;;21.55;12.65;;;8.90;99.90;;;;;;4943400;29;20133;-49
2021/12/17 11:17:39;;;;;;;22.15;13.07;;;9.00;99.90;;;;;;4944842;29;20130;-47
2021/12/17 11:20:19;;;;;;;24.35;13.65;;;8.90;99.90;;;;;;4935786;29;20275;-48
2021/12/17 11:22:48;;;;;;;25.17;12.88;;;9.00;99.90;;;;;;4946057;29;20126;-47
2021/12/17 11:25:14;;;;;;;23.13;12.35;;;9.00;99.90;;;;;;4926096;29;20494;-49
2021/12/17 11:27:42;;;;;;;23.90;13.18;;;9.00;99.90;;;;;;4945115;29;20130;-49
2021/12/17 11:30:11;;;;;;;25.80;14.25;;;9.00;99.90;;;;;;4945391;28;20051;-51
2021/12/17 11:32:38;;;;;;;23.35;13.43;;;9.00;99.90;;;;;;4945782;29;20500;-47
2021/12/17 11:35:04;;;;;;;23.55;13.30;;;9.00;99.90;;;;;;4931755;29;20055;-47
2021/12/17 11:37:32;;;;;;;22.08;12.52;;;9.00;99.90;;;;;;4944546;29;20050;-48
2021/12/17 11:40:03;;;;;;;20.02;12.57;;;9.00;99.90;;;;;;4945576;29;20087;-48
2021/12/17 11:42:35;;;;;;;22.83;13.13;;;9.00;99.90;;;;;;4946060;29;20050;-50
2021/12/17 11:47:47;;;;;;;28.40;14.00;;;9.10;99.90;;;;;;4943846;29;20094;-48
2021/12/17 11:50:16;;;;;;;24.73;12.35;;;9.10;99.90;;;;;;4945893;29;20146;-51
2021/12/17 11:52:45;;;;;;;24.95;13.32;;;9.10;99.90;;;;;;4927366;29;20114;-48
2021/12/17 11:55:20;;;;;;;19.33;12.32;;;9.10;99.90;;;;;;4944443;29;20425;-47
2021/12/17 11:57:48;;;;;;;24.83;12.98;;;9.10;99.90;;;;;;4934353;28;20043;-48
2021/12/17 12:00:21;;;;;;;20.63;11.98;;;9.10;99.90;;;;;;4927137;29;20059;-47
2021/12/17 12:02:55;;;;;;;21.83;12.38;;;9.10;99.90;;;;;;4945889;28;20067;-47
2021/12/17 12:05:36;;;;;;;20.00;11.73;;;9.20;99.90;;;;;;4928532;29;20063;-47
2021/12/17 12:08:46;;;;;;;18.92;12.10;;;9.20;99.90;;;;;;4945620;29;20455;-48
2021/12/17 12:11:25;;;;;;;17.98;10.25;;;9.20;99.90;;;;;;4928209;29;20075;-49
2021/12/17 12:13:53;;;;;;;16.95;11.02;;;9.20;99.90;;;;;;4945785;29;20521;-49
2021/12/17 12:16:28;;;;;;;19.63;11.23;;;9.20;99.90;;;;;;4946420;29;20079;-48
2021/12/17 12:18:59;;;;;;;19.70;11.52;;;9.20;99.90;;;;;;4945988;29;20501;-47
2021/12/17 12:21:32;;;;;;;17.13;10.55;;;9.20;99.90;;;;;;4948474;28;20102;-47
2021/12/17 12:24:18;;;;;;;15.50;10.43;;;9.20;99.90;;;;;;4946212;29;20106;-53
2021/12/17 12:26:48;;;;;;;18.50;11.05;;;9.20;99.90;;;;;;4943364;29;20047;-48
2021/12/17 12:29:22;;;;;;;13.57;9.60;;;9.20;99.90;;;;;;4944134;29;20138;-49
2021/12/17 12:32:00;;;;;;;19.95;11.43;;;9.20;99.90;;;;;;4916024;29;20063;-47
2021/12/17 12:34:35;;;;;;;17.30;10.73;;;9.20;99.90;;;;;;4917397;28;20179;-47
2021/12/17 12:37:07;;;;;;;15.85;10.77;;;9.20;99.90;;;;;;4943468;29;20055;-47
2021/12/17 12:40:02;;;;;;;17.20;11.57;;;9.20;99.90;;;;;;4925820;29;20106;-47
2021/12/17 12:42:35;;;;;;;20.05;12.57;;;9.20;99.90;;;;;;4926769;28;20077;-48
2021/12/17 12:45:06;;;;;;;15.13;11.07;;;9.20;99.90;;;;;;4944245;28;20375;-47
2021/12/17 12:47:54;;;;;;;15.40;10.05;;;9.20;99.90;;;;;;4925141;28;20081;-47
2021/12/17 12:50:24;;;;;;;14.23;10.45;;;9.20;99.90;;;;;;4937429;28;20644;-47
2021/12/17 12:53:11;;;;;;;14.15;10.18;;;9.20;99.90;;;;;;4926511;29;20359;-48
2021/12/17 12:55:43;;;;;;;16.02;10.70;;;9.30;99.90;;;;;;4926970;29;20409;-49
2021/12/17 12:58:13;;;;;;;13.50;10.13;;;9.20;99.90;;;;;;4911061;29;20136;-48
2021/12/17 13:00:49;;;;;;;15.00;10.90;;;9.20;99.90;;;;;;4943921;29;20492;-47
2021/12/17 13:03:27;;;;;;;15.82;10.50;;;9.20;99.90;;;;;;4943486;28;20141;-48
2021/12/17 13:05:54;;;;;;;14.23;11.00;;;9.20;99.90;;;;;;4912183;29;20078;-49
2021/12/17 13:08:22;;;;;;;16.60;11.20;;;9.20;99.90;;;;;;4925394;29;20062;-48
2021/12/17 13:10:54;;;;;;;13.13;10.43;;;9.20;99.90;;;;;;4944297;29;20357;-48
2021/12/17 13:13:34;;;;;;;13.73;10.65;;;9.20;99.90;;;;;;4926218;28;20055;-47
2021/12/17 13:22:14;;;;;;;12.10;8.50;;;9.10;99.90;;;;;;4940442;29;20473;-48
2021/12/17 13:24:40;;;;;;;11.65;8.32;;;9.10;99.90;;;;;;4942593;29;20394;-49
2021/12/17 13:27:10;;;;;;;11.40;9.65;;;9.00;99.90;;;;;;4941341;29;20565;-48
2021/12/17 13:29:40;;;;;;;13.07;10.57;;;9.00;99.90;;;;;;4937641;28;20080;-51
2021/12/17 13:32:09;;;;;;;13.65;10.98;;;9.10;99.90;;;;;;4938848;28;20066;-47
2021/12/17 13:34:39;;;;;;;12.68;10.10;;;9.00;99.90;;;;;;4944807;28;20070;-51
2021/12/17 13:37:15;;;;;;;16.10;10.70;;;9.00;99.90;;;;;;4943393;29;20122;-48
2021/12/17 13:39:59;;;;;;;13.80;10.10;;;9.00;99.90;;;;;;4944366;29;20086;-50
2021/12/17 13:42:27;;;;;;;;;;;9.00;99.90;;;;;;4944220;29;20055;-48
2021/12/17 13:44:57;;;;;;;12.30;9.50;;;9.00;99.90;;;;;;4940988;28;19926;-47
2021/12/17 13:47:24;;;;;;;12.77;10.00;;;9.00;99.90;;;;;;4942262;28;20157;-48
2021/12/17 13:49:53;;;;;;;12.02;10.27;;;9.00;99.90;;;;;;4943237;28;20059;-47
2021/12/17 13:52:22;;;;;;;13.30;10.52;;;9.00;99.90;;;;;;4924921;29;20130;-47
2021/12/17 13:54:49;;;;;;;12.57;9.88;;;9.00;99.90;;;;;;4926121;29;20442;-47
2021/12/17 13:57:17;;;;;;;15.30;10.25;;;9.00;99.90;;;;;;4943592;29;20051;-48
2021/12/17 13:59:44;;;;;;;12.95;10.27;;;9.00;99.90;;;;;;4943120;29;20091;-47
2021/12/17 14:02:20;;;;;;;12.55;10.88;;;9.00;99.90;;;;;;4942329;29;20466;-49
2021/12/17 14:05:09;;;;;;;16.70;12.23;;;9.00;99.90;;;;;;4923190;29;20102;-48
2021/12/17 14:07:37;;;;;;;15.70;11.52;;;9.00;99.90;;;;;;4933954;29;20482;-50
2021/12/17 14:10:10;;;;;;;15.15;12.35;;;9.00;99.90;;;;;;4926393;29;20111;-49
2021/12/17 14:12:40;;;;;;;17.90;11.60;;;9.10;99.90;;;;;;4930804;29;20075;-48
2021/12/17 14:15:28;;;;;;;19.08;13.60;;;9.00;99.90;;;;;;4912640;29;20539;-48
2021/12/17 14:17:59;;;;;;;14.05;11.63;;;9.10;99.90;;;;;;4940092;29;20043;-49
2021/12/17 14:20:36;;;;;;;14.85;11.90;;;9.10;99.90;;;;;;4942451;28;20047;-47
2021/12/17 14:23:11;;;;;;;19.40;12.50;;;9.00;99.90;;;;;;4941048;28;20189;-47
2021/12/17 14:25:39;;;;;;;21.65;14.65;;;9.10;99.90;;;;;;4940210;29;20175;-47
2021/12/17 14:28:13;;;;;;;14.95;11.15;;;9.10;99.90;;;;;;4926173;29;20134;-49
2021/12/17 14:30:41;;;;;;;12.95;10.60;;;9.10;99.90;;;;;;4923831;29;20451;-47
2021/12/17 14:33:14;;;;;;;15.02;12.38;;;9.00;99.90;;;;;;4943067;29;20493;-50
2021/12/17 14:35:41;;;;;;;15.52;12.10;;;9.10;99.90;;;;;;4946427;28;20063;-48
2021/12/17 14:38:07;;;;;;;17.23;12.68;;;9.00;99.90;;;;;;4908462;29;20504;-48
2021/12/17 14:40:50;;;;;;;16.67;11.90;;;9.00;99.90;;;;;;4922345;29;20056;-48
2021/12/17 14:43:26;;;;;;;;;;;9.10;99.90;;;;;;4915754;29;20127;-49
2021/12/17 14:46:00;;;;;;;14.93;10.75;;;9.10;99.90;;;;;;4944825;29;20316;-47
2021/12/17 14:48:38;;;;;;;14.80;10.85;;;9.00;99.90;;;;;;4916511;29;20051;-50
2021/12/17 15:04:40;;;;;;;11.30;9.38;;;9.00;99.90;;;;;;4946461;28;20070;-48
2021/12/17 15:07:06;;;;;;;12.98;9.55;;;9.00;99.90;;;;;;4942215;28;20083;-48
2021/12/17 15:09:35;;;;;;;12.63;9.57;;;8.90;99.90;;;;;;4924104;28;20083;-48
2021/12/17 15:12:11;;;;;;;14.20;10.55;;;8.90;99.90;;;;;;4936804;28;20130;-49
2021/12/17 15:14:37;;;;;;;12.95;9.68;;;8.90;99.90;;;;;;4903225;29;20051;-49
2021/12/17 15:17:04;;;;;;;14.98;10.57;;;8.90;99.90;;;;;;4942421;28;20533;-47
2021/12/17 15:19:30;;;;;;;11.75;10.02;;;8.90;99.90;;;;;;4927733;29;20413;-50
2021/12/17 15:21:56;;;;;;;12.20;9.77;;;8.90;99.90;;;;;;4946197;29;20047;-47
2021/12/17 15:24:22;;;;;;;10.23;8.68;;;8.90;99.90;;;;;;4945871;29;20051;-47
2021/12/17 15:26:47;;;;;;;10.77;8.85;;;8.90;99.90;;;;;;4945302;29;20125;-48
2021/12/17 15:29:13;;;;;;;13.05;9.98;;;8.80;99.90;;;;;;4940595;29;20051;-47
2021/12/17 15:31:39;;;;;;;9.93;7.97;;;8.80;99.90;;;;;;4920848;29;20502;-48
2021/12/17 15:34:05;;;;;;;11.80;8.30;;;8.80;99.90;;;;;;4942771;28;20058;-50
2021/12/17 15:36:30;;;;;;;11.32;8.75;;;8.90;99.90;;;;;;4915622;29;20402;-48
2021/12/17 15:38:56;;;;;;;11.63;8.55;;;8.80;99.90;;;;;;4932830;28;20505;-47
2021/12/17 15:41:22;;;;;;;10.63;8.43;;;8.80;99.90;;;;;;4935992;29;20522;-47
2021/12/17 15:43:48;;;;;;;12.15;9.25;;;8.80;99.90;;;;;;4934350;29;20051;-49
2021/12/17 15:46:13;;;;;;;13.05;8.45;;;8.80;99.90;;;;;;4918236;29;20043;-48
2021/12/17 15:48:39;;;;;;;11.25;8.98;;;8.80;99.90;;;;;;4926005;29;20055;-47
2021/12/17 15:51:06;;;;;;;10.45;9.13;;;8.80;99.90;;;;;;4938946;29;20415;-47
2021/12/17 15:53:33;;;;;;;10.73;8.95;;;8.80;99.90;;;;;;4938373;29;20050;-48
2021/12/17 15:55:59;;;;;;;9.82;8.80;;;8.80;99.90;;;;;;4937327;28;20043;-49
2021/12/17 15:58:25;;;;;;;10.88;8.68;;;8.80;99.90;;;;;;4938697;29;20062;-49
2021/12/17 16:00:51;;;;;;;9.55;8.23;;;8.70;99.90;;;;;;4905332;29;20063;-49
2021/12/17 16:03:25;;;;;;;11.00;8.27;;;8.80;99.90;;;;;;4903020;28;20058;-50
2021/12/17 16:05:51;;;;;;;9.93;8.52;;;8.80;99.90;;;;;;4909548;29;20071;-47
2021/12/17 16:08:17;;;;;;;9.63;8.63;;;8.70;99.90;;;;;;4935755;28;20047;-49
2021/12/17 16:21:18;;;;;;;20.35;14.32;;;8.70;99.90;;;;;;4936111;28;20534;-48